createdAt,value
2022-08-26T00:09:09.706Z,61.5
2022-08-26T00:24:21.257Z,61.7
2022-08-26T00:39:30.214Z,61.1
2022-08-26T00:54:43.371Z,60.8
2022-08-26T01:09:52.776Z,61.5
2022-08-26T01:25:04.136Z,60.7
2022-08-26T01:40:14.072Z,60.9
2022-08-26T01:55:34.466Z,60.6
2022-08-26T02:10:43.759Z,60.9
2022-08-26T02:25:52.795Z,61.1
2022-08-26T02:41:01.954Z,60.9
2022-08-26T02:56:11.217Z,61.2
2022-08-26T03:11:22.059Z,61.4
2022-08-26T03:26:31.431Z,61.5
2022-08-26T03:41:41.418Z,61.6
2022-08-26T03:56:50.672Z,61.8
2022-08-26T04:11:59.290Z,62
2022-08-26T04:27:08.901Z,62.1
2022-08-26T04:42:26.721Z,62.2
2022-08-26T04:57:36.097Z,62.5
2022-08-26T05:12:46.549Z,62.4
2022-08-26T05:27:55.918Z,62.3
2022-08-26T05:43:09.798Z,62.3
2022-08-26T05:58:19.129Z,62.5
2022-08-26T06:13:32.438Z,62.8
2022-08-26T06:28:46.059Z,63.1
2022-08-26T06:43:55.597Z,63.3
2022-08-26T06:59:08.090Z,63.3
2022-08-26T07:14:22.303Z,63.4
2022-08-26T07:29:31.623Z,63.3
2022-08-26T07:44:40.921Z,63.3
2022-08-26T07:59:50.302Z,63
2022-08-26T08:14:59.880Z,62.8
2022-08-26T08:30:14.420Z,62.3
2022-08-26T08:45:24.307Z,62.5
2022-08-26T09:00:40.232Z,62.1
2022-08-26T09:15:49.915Z,61.9
2022-08-26T09:31:00.954Z,61.5
2022-08-26T09:46:12.109Z,61.2
2022-08-26T10:01:22.600Z,60.9
2022-08-26T10:16:35.346Z,60.6
2022-08-26T10:31:51.943Z,60.3
2022-08-26T10:47:02.862Z,59.9
2022-08-26T11:02:15.565Z,59.5
2022-08-26T11:17:25.590Z,59
2022-08-26T11:32:36.139Z,58.4
2022-08-26T11:47:52.777Z,57.8
2022-08-26T12:03:02.921Z,56.7
2022-08-26T12:18:13.244Z,52.7
2022-08-26T12:33:23.791Z,53.3
2022-08-26T12:48:32.347Z,55
2022-08-26T13:03:41.956Z,54.9
2022-08-26T13:18:50.046Z,55.7
2022-08-26T13:33:59.053Z,56.5
2022-08-26T13:49:08.267Z,56.8
2022-08-26T14:04:27.876Z,56.5
2022-08-26T14:19:36.875Z,56.4
2022-08-26T14:34:46.193Z,56.2
2022-08-26T14:49:55.682Z,55
2022-08-26T15:05:06.364Z,52.6
2022-08-26T15:20:16.482Z,51.8
2022-08-26T15:35:26.825Z,53.3
2022-08-26T15:50:34.723Z,55.5
2022-08-26T16:05:44.743Z,57.2
2022-08-26T16:21:14.479Z,57.2
2022-08-26T16:36:24.275Z,58
2022-08-26T16:51:38.869Z,58.6
2022-08-26T17:06:48.849Z,58.8
2022-08-26T17:21:58.232Z,59
2022-08-26T17:37:07.369Z,59.4
2022-08-26T17:52:15.977Z,60.3
2022-08-26T18:07:24.958Z,60.7
2022-08-26T18:22:34.157Z,61.2
2022-08-26T18:37:43.524Z,61.5
2022-08-26T18:52:52.663Z,61.9
2022-08-26T19:08:02.063Z,62.3
2022-08-26T19:23:33.351Z,62.6
2022-08-26T19:38:43.227Z,63
2022-08-26T19:53:52.690Z,63.1
2022-08-26T20:09:02.537Z,64.1
2022-08-26T20:24:11.800Z,63.5
2022-08-26T20:39:22.685Z,63.7
2022-08-26T20:54:32.586Z,63.8
2022-08-26T21:09:43.775Z,64
